createdAt,value
2022-10-01T00:01:19.278Z,80.70
2022-10-01T00:03:49.276Z,80.85
2022-10-01T00:06:20.710Z,80.94
2022-10-01T00:08:50.695Z,81.09
2022-10-01T00:11:25.140Z,81.24
2022-10-01T00:13:54.323Z,81.38
2022-10-01T00:16:26.882Z,81.50
2022-10-01T00:18:55.757Z,81.69
2022-10-01T00:21:27.239Z,81.80
2022-10-01T00:23:58.458Z,81.85
2022-10-01T00:26:31.559Z,81.92
2022-10-01T00:29:03.004Z,82.03
2022-10-01T00:31:31.306Z,82.20
2022-10-01T00:34:05.474Z,82.24
2022-10-01T00:36:35.659Z,82.20
2022-10-01T00:39:03.671Z,82.15
2022-10-01T00:41:34.880Z,82.09
2022-10-01T00:44:34.028Z,82.04
2022-10-01T00:47:17.514Z,82.05
2022-10-01T00:49:47.276Z,81.98
2022-10-01T00:52:21.485Z,81.98
2022-10-01T00:54:55.891Z,82.05
2022-10-01T00:57:26.959Z,82.02
2022-10-01T00:59:57.491Z,82.03
2022-10-01T01:02:38.358Z,82.04
2022-10-01T01:05:22.579Z,81.93
2022-10-01T01:08:00.094Z,81.90
2022-10-01T01:14:49.913Z,82.02
2022-10-01T01:18:08.708Z,82.13
2022-10-01T01:21:46.719Z,82.18
2022-10-01T01:25:20.733Z,82.28
2022-10-01T01:28:27.438Z,82.38
2022-10-01T01:31:08.255Z,82.52
2022-10-01T01:33:39.050Z,82.60
2022-10-01T01:36:32.539Z,82.70
2022-10-01T01:39:04.902Z,82.71
2022-10-01T01:41:37.172Z,82.79
2022-10-01T01:44:09.054Z,82.84
2022-10-01T01:46:41.123Z,82.91
2022-10-01T01:49:09.741Z,82.94
2022-10-01T01:53:06.107Z,82.95
2022-10-01T01:55:35.752Z,82.96
2022-10-01T01:58:04.321Z,82.98
2022-10-01T02:00:32.497Z,82.88
2022-10-01T02:03:00.714Z,82.87
2022-10-01T02:05:38.831Z,82.88
2022-10-01T02:08:41.177Z,82.92
2022-10-01T02:11:29.658Z,82.92
2022-10-01T02:14:47.578Z,82.98
2022-10-01T02:18:09.910Z,83.14
2022-10-01T02:20:44.028Z,83.27
2022-10-01T02:23:18.006Z,83.36
2022-10-01T02:25:55.467Z,83.42
2022-10-01T02:28:25.157Z,83.50
2022-10-01T02:30:55.946Z,83.58
2022-10-01T02:33:30.532Z,83.69
2022-10-01T02:36:00.445Z,83.77
2022-10-01T02:38:28.808Z,83.86
2022-10-01T02:41:01.051Z,83.89
2022-10-01T02:43:42.787Z,83.99
2022-10-01T02:46:42.331Z,84.06
2022-10-01T02:49:11.553Z,84.10
2022-10-01T02:52:04.649Z,84.08
2022-10-01T02:54:47.780Z,84.00
2022-10-01T02:57:27.183Z,83.87
2022-10-01T03:00:17.245Z,83.83
2022-10-01T03:02:45.175Z,83.83
2022-10-01T03:05:13.299Z,83.94
2022-10-01T03:07:41.510Z,84.06
2022-10-01T03:10:11.381Z,84.08
2022-10-01T03:12:45.302Z,84.01
2022-10-01T03:15:16.012Z,84.01
2022-10-01T03:17:44.044Z,84.03
2022-10-01T03:20:12.795Z,84.04
2022-10-01T03:22:40.693Z,84.01
2022-10-01T03:25:09.365Z,83.99
2022-10-01T03:27:37.114Z,83.99
2022-10-01T03:30:06.073Z,83.91
2022-10-01T03:32:34.187Z,83.88
2022-10-01T03:35:02.080Z,83.88
2022-10-01T03:37:30.154Z,83.86
2022-10-01T03:39:58.211Z,83.88
2022-10-01T03:42:26.024Z,83.87
2022-10-01T03:44:53.759Z,83.90
2022-10-01T03:47:24.507Z,83.89
2022-10-01T03:49:52.672Z,83.88
2022-10-01T03:52:20.565Z,83.91
2022-10-01T03:54:49.479Z,83.96
2022-10-01T03:57:17.317Z,83.97
2022-10-01T03:59:45.424Z,83.97
2022-10-01T04:02:13.536Z,83.98
2022-10-01T04:04:41.673Z,84.04
2022-10-01T04:07:09.445Z,84.06
2022-10-01T04:09:37.899Z,84.09
2022-10-01T04:12:06.180Z,84.16
2022-10-01T04:14:34.295Z,84.18
2022-10-01T04:17:02.059Z,84.18
2022-10-01T04:19:30.330Z,84.26
2022-10-01T04:21:58.163Z,84.34
2022-10-01T04:24:25.948Z,84.42
2022-10-01T04:26:53.718Z,84.48
2022-10-01T04:29:21.771Z,84.50
2022-10-01T04:31:52.877Z,84.48
2022-10-01T04:34:41.089Z,84.57
2022-10-01T04:37:09.124Z,84.63
2022-10-01T04:39:37.249Z,84.70
2022-10-01T04:42:05.591Z,84.73
2022-10-01T04:44:34.077Z,84.72
2022-10-01T04:47:02.185Z,84.71
2022-10-01T04:49:32.989Z,84.69
2022-10-01T04:52:01.241Z,84.68
2022-10-01T04:54:30.286Z,84.71
2022-10-01T04:56:58.399Z,84.88
2022-10-01T04:59:26.734Z,85.03
2022-10-01T05:01:55.947Z,85.18
2022-10-01T05:04:26.377Z,85.25
2022-10-01T05:06:55.087Z,85.31
2022-10-01T05:09:22.849Z,85.46
2022-10-01T05:11:52.171Z,85.67
2022-10-01T05:14:23.027Z,85.71
2022-10-01T05:16:51.331Z,85.47
2022-10-01T05:19:19.297Z,85.16
2022-10-01T05:21:49.497Z,85.19
2022-10-01T05:24:17.881Z,85.04
2022-10-01T05:26:45.737Z,84.80
2022-10-01T05:29:15.419Z,84.69
2022-10-01T05:31:44.427Z,84.65
2022-10-01T05:34:12.775Z,84.54
2022-10-01T05:36:40.651Z,84.49
2022-10-01T05:39:10.868Z,84.46
2022-10-01T05:41:41.073Z,84.47
2022-10-01T05:44:12.693Z,84.53
2022-10-01T05:46:48.254Z,84.57
2022-10-01T05:49:17.808Z,84.54
2022-10-01T05:51:46.001Z,84.53
2022-10-01T05:54:13.994Z,84.65
2022-10-01T05:56:42.286Z,84.77
2022-10-01T05:59:10.098Z,84.88
2022-10-01T06:01:38.146Z,85.00
2022-10-01T06:04:05.858Z,85.09
2022-10-01T06:06:33.560Z,85.14
2022-10-01T06:09:01.660Z,85.25
2022-10-01T06:11:29.515Z,85.36
2022-10-01T06:13:57.350Z,85.51
2022-10-01T06:16:25.297Z,85.62
2022-10-01T06:18:57.629Z,85.77
2022-10-01T06:21:26.610Z,85.97
2022-10-01T06:23:54.977Z,86.04
2022-10-01T06:26:25.661Z,86.06
2022-10-01T06:28:54.127Z,86.05
2022-10-01T06:31:25.657Z,86.06
2022-10-01T06:33:54.307Z,86.08
2022-10-01T06:36:24.222Z,86.05
2022-10-01T06:38:55.162Z,86.05
2022-10-01T06:41:23.366Z,86.16
2022-10-01T06:43:51.829Z,86.22
2022-10-01T06:46:21.162Z,86.30
2022-10-01T06:48:49.896Z,86.39
2022-10-01T06:51:37.762Z,86.44
2022-10-01T06:54:05.665Z,86.44
2022-10-01T06:56:35.570Z,86.43
2022-10-01T06:59:04.304Z,86.39
2022-10-01T07:01:33.110Z,86.42
2022-10-01T07:04:01.570Z,86.45
2022-10-01T07:06:29.700Z,86.47
2022-10-01T07:08:57.692Z,86.59
2022-10-01T07:11:27.380Z,86.43
2022-10-01T07:13:55.338Z,86.27
2022-10-01T07:16:23.627Z,86.18
2022-10-01T07:18:52.856Z,85.93
2022-10-01T07:21:21.129Z,85.75
2022-10-01T07:23:49.289Z,85.30
2022-10-01T07:26:18.489Z,84.83
2022-10-01T07:28:46.901Z,84.33
2022-10-01T07:31:18.787Z,83.85
2022-10-01T07:33:50.122Z,83.14
2022-10-01T07:36:18.127Z,82.27
2022-10-01T07:38:51.459Z,81.56
2022-10-01T07:41:22.568Z,81.80
2022-10-01T07:43:50.736Z,81.92
2022-10-01T07:46:20.405Z,81.96
2022-10-01T07:48:49.661Z,81.72
2022-10-01T07:51:17.792Z,81.34
2022-10-01T07:53:45.938Z,79.89
2022-10-01T07:56:14.790Z,79.54
2022-10-01T07:58:43.666Z,78.99
2022-10-01T08:01:11.845Z,78.51
2022-10-01T08:03:40.061Z,78.20
2022-10-01T08:06:12.046Z,77.75
2022-10-01T08:08:40.074Z,76.87
2022-10-01T08:11:10.318Z,75.84
2022-10-01T08:13:38.486Z,74.79
2022-10-01T08:16:09.687Z,73.02
2022-10-01T08:18:38.240Z,72.50
2022-10-01T08:21:07.191Z,72.14
2022-10-01T08:23:35.304Z,71.43
2022-10-01T08:26:08.270Z,69.82
2022-10-01T08:28:36.792Z,69.22
2022-10-01T08:31:10.092Z,68.86
2022-10-01T08:33:39.015Z,68.29
2022-10-01T08:36:08.630Z,68.29
2022-10-01T08:38:37.554Z,68.23
2022-10-01T08:41:23.654Z,67.60
2022-10-01T08:43:54.193Z,66.81
2022-10-01T08:46:27.239Z,66.16
2022-10-01T08:49:08.997Z,65.80
2022-10-01T08:52:05.507Z,64.39
2022-10-01T08:54:57.340Z,64.64
2022-10-01T08:57:43.693Z,64.37
2022-10-01T09:00:17.518Z,64.06
2022-10-01T09:02:46.960Z,63.85
2022-10-01T09:07:10.364Z,61.68
2022-10-01T09:11:25.288Z,60.35
2022-10-01T09:15:04.836Z,58.09
2022-10-01T09:18:08.884Z,55.88
2022-10-01T09:25:44.934Z,53.98
2022-10-01T10:13:23.861Z,56.40
2022-10-01T10:20:42.756Z,56.92
2022-10-01T10:24:23.828Z,57.30
2022-10-01T10:39:39.578Z,58.60
2022-10-01T12:14:18.592Z,57.59
2022-10-01T12:22:30.628Z,56.74
2022-10-01T12:41:51.937Z,56.57
2022-10-01T12:45:30.702Z,56.81
2022-10-01T13:54:02.526Z,62.96
2022-10-01T13:56:37.084Z,62.97
2022-10-01T13:59:34.776Z,61.49
2022-10-01T14:02:04.045Z,58.21
2022-10-01T14:04:41.341Z,56.03
2022-10-01T14:07:21.737Z,55.76
2022-10-01T14:09:53.187Z,55.83
2022-10-01T14:12:53.623Z,56.19
2022-10-01T14:15:56.541Z,57.30
2022-10-01T14:18:39.830Z,58.00
2022-10-01T14:21:32.454Z,62.14
2022-10-01T14:24:43.877Z,63.91
2022-10-01T14:27:57.403Z,64.99
2022-10-01T14:30:39.569Z,66.62
2022-10-01T14:33:16.763Z,67.74
2022-10-01T14:36:02.875Z,68.41
2022-10-01T14:38:31.073Z,69.39
2022-10-01T14:40:59.150Z,70.67
2022-10-01T14:43:30.844Z,71.30
2022-10-01T14:46:04.169Z,71.82
2022-10-01T14:48:38.039Z,72.53
2022-10-01T14:51:19.997Z,72.88
2022-10-01T14:53:49.324Z,73.05
2022-10-01T14:56:17.646Z,73.96
2022-10-01T14:58:55.165Z,74.31
2022-10-01T15:01:30.592Z,74.77
2022-10-01T15:04:21.932Z,74.92
2022-10-01T15:06:50.515Z,74.83
2022-10-01T15:09:24.762Z,75.55
2022-10-01T15:11:59.770Z,76.03
2022-10-01T15:14:28.266Z,76.05
2022-10-01T15:16:56.487Z,76.54
2022-10-01T15:19:27.784Z,76.44
2022-10-01T15:21:58.475Z,75.97
2022-10-01T15:24:47.716Z,76.34
2022-10-01T15:27:20.907Z,76.61
2022-10-01T15:29:59.145Z,76.80
2022-10-01T15:32:30.455Z,77.32
2022-10-01T15:35:01.360Z,77.40
2022-10-01T15:37:35.395Z,77.87
2022-10-01T15:40:09.895Z,77.96
2022-10-01T15:42:38.039Z,78.32
2022-10-01T15:45:09.024Z,78.09
2022-10-01T15:47:39.858Z,78.50
2022-10-01T15:50:10.815Z,78.39
2022-10-01T15:52:51.108Z,78.39
2022-10-01T15:55:32.935Z,78.59
2022-10-01T15:58:10.395Z,78.74
2022-10-01T16:00:48.873Z,78.48
2022-10-01T16:03:27.441Z,78.50
2022-10-01T16:06:02.692Z,78.76
2022-10-01T16:08:40.280Z,78.60
2022-10-01T16:11:14.436Z,78.45
2022-10-01T16:13:50.769Z,78.50
2022-10-01T16:16:30.240Z,78.49
2022-10-01T16:19:18.585Z,78.25
2022-10-01T16:22:14.979Z,78.05
2022-10-01T16:25:01.067Z,77.91
2022-10-01T16:27:45.480Z,77.72
2022-10-01T16:30:24.214Z,77.76
2022-10-01T16:32:55.348Z,77.77
2022-10-01T16:35:36.361Z,77.73
2022-10-01T16:38:10.083Z,77.71
2022-10-01T16:40:42.539Z,77.75
2022-10-01T16:43:24.441Z,77.93
2022-10-01T16:45:54.031Z,77.87
2022-10-01T16:48:25.010Z,78.06
2022-10-01T16:50:54.066Z,77.93
2022-10-01T16:53:24.942Z,77.84
2022-10-01T16:55:59.853Z,77.91
2022-10-01T16:58:27.728Z,78.16
2022-10-01T17:00:55.729Z,78.24
2022-10-01T17:03:25.188Z,78.19
2022-10-01T17:05:53.801Z,78.47
2022-10-01T17:08:22.441Z,78.83
2022-10-01T17:11:00.273Z,78.86
2022-10-01T17:13:35.497Z,79.18
2022-10-01T17:16:06.288Z,79.23
2022-10-01T17:18:41.907Z,79.26
2022-10-01T17:21:11.784Z,79.52
2022-10-01T17:23:42.343Z,79.83
2022-10-01T17:26:34.040Z,80.03
2022-10-01T17:29:27.861Z,80.26
2022-10-01T17:32:00.316Z,80.29
2022-10-01T17:38:09.276Z,80.43
2022-10-01T17:40:57.014Z,80.61
2022-10-01T17:43:32.127Z,80.52
2022-10-01T17:46:49.859Z,80.52
2022-10-01T17:52:32.723Z,80.80
2022-10-01T17:55:12.476Z,80.92
2022-10-01T17:58:00.531Z,81.05
2022-10-01T18:00:30.760Z,81.09
2022-10-01T18:03:02.148Z,81.18
2022-10-01T18:05:51.821Z,81.15
2022-10-01T18:08:33.293Z,81.45
2022-10-01T18:11:37.766Z,81.40
2022-10-01T18:14:24.325Z,81.40
2022-10-01T18:17:00.049Z,81.41
2022-10-01T18:19:53.390Z,81.46
2022-10-01T18:22:39.542Z,81.58
2022-10-01T18:25:18.071Z,81.73
2022-10-01T18:27:54.007Z,81.80
2022-10-01T18:30:30.714Z,81.85
2022-10-01T18:33:31.979Z,81.97
2022-10-01T18:36:05.194Z,82.01
2022-10-01T18:38:41.189Z,82.21
2022-10-01T18:41:24.837Z,82.32
2022-10-01T18:43:59.196Z,82.36
2022-10-01T18:47:14.068Z,82.42
2022-10-01T18:50:31.094Z,82.58
2022-10-01T18:53:36.031Z,82.60
2022-10-01T18:56:25.413Z,82.73
2022-10-01T18:59:25.997Z,82.70
2022-10-01T19:02:41.902Z,82.87
2022-10-01T19:06:17.397Z,82.82
2022-10-01T19:09:13.116Z,82.85
2022-10-01T19:12:09.094Z,83.11
2022-10-01T19:15:13.779Z,83.24
2022-10-01T19:18:15.736Z,83.38
2022-10-01T19:21:04.557Z,83.38
2022-10-01T19:23:56.201Z,83.47
2022-10-01T19:26:54.500Z,83.56
2022-10-01T19:29:30.652Z,83.58
2022-10-01T19:32:13.135Z,83.50
2022-10-01T19:35:02.703Z,83.55
2022-10-01T19:37:38.884Z,83.60
2022-10-01T19:40:25.758Z,83.66
2022-10-01T19:43:27.220Z,83.64
2022-10-01T19:46:43.963Z,83.66
2022-10-01T19:49:37.815Z,83.72
2022-10-01T19:52:19.664Z,83.75
2022-10-01T19:54:55.539Z,83.78
2022-10-01T19:57:39.301Z,83.73
2022-10-01T20:00:22.833Z,83.82
2022-10-01T20:03:31.540Z,83.80
2022-10-01T20:06:34.381Z,83.74
2022-10-01T20:09:26.812Z,83.67
2022-10-01T20:12:52.329Z,83.72
2022-10-01T20:15:49.074Z,83.67
2022-10-01T20:19:04.954Z,83.73
2022-10-01T20:21:57.210Z,83.76
2022-10-01T20:24:42.263Z,83.76
2022-10-01T20:27:50.123Z,83.77
2022-10-01T20:30:28.384Z,83.73
2022-10-01T20:33:48.211Z,83.74
2022-10-01T20:36:54.764Z,83.73
2022-10-01T20:39:50.301Z,83.76
2022-10-01T20:42:35.904Z,83.77
2022-10-01T20:45:23.794Z,83.81
2022-10-01T20:48:13.409Z,83.82
2022-10-01T20:51:34.027Z,83.81
2022-10-01T20:54:18.834Z,83.80
2022-10-01T20:57:11.544Z,83.82
2022-10-01T21:00:31.841Z,83.88
2022-10-01T21:03:45.511Z,83.84
2022-10-01T21:06:52.003Z,83.85
2022-10-01T21:09:37.552Z,83.87
2022-10-01T21:12:33.122Z,83.86
2022-10-01T21:15:20.728Z,83.87
2022-10-01T21:18:15.834Z,83.89
2022-10-01T21:21:16.480Z,83.87
2022-10-01T21:24:37.526Z,83.87
2022-10-01T21:27:27.588Z,83.83
2022-10-01T21:30:35.962Z,83.83
2022-10-01T21:33:35.167Z,83.85
2022-10-01T21:36:52.130Z,83.85
2022-10-01T21:40:17.170Z,83.83
2022-10-01T21:43:17.667Z,83.85
2022-10-01T21:46:00.661Z,83.82
2022-10-01T21:48:45.957Z,83.78
2022-10-01T21:51:24.344Z,83.78
2022-10-01T21:54:30.268Z,83.78
2022-10-01T21:57:51.747Z,83.80
2022-10-01T22:00:29.073Z,83.79
2022-10-01T22:03:13.309Z,83.74
2022-10-01T22:06:40.026Z,83.78
2022-10-01T22:09:32.977Z,83.75
2022-10-01T22:12:04.973Z,83.74
2022-10-01T22:14:33.409Z,83.72
2022-10-01T22:17:19.763Z,83.72
2022-10-01T22:19:58.335Z,83.70
2022-10-01T22:22:36.259Z,83.73
2022-10-01T22:25:07.710Z,83.71
2022-10-01T22:28:03.430Z,83.74
2022-10-01T22:30:35.999Z,83.70
2022-10-01T22:33:20.346Z,83.67
2022-10-01T22:36:07.313Z,83.69
2022-10-01T22:38:55.648Z,83.75
2022-10-01T22:41:41.685Z,83.98
2022-10-01T22:44:23.050Z,84.21
2022-10-01T22:47:27.101Z,84.48
2022-10-01T22:50:20.942Z,84.61
2022-10-01T22:53:12.787Z,84.82
2022-10-01T22:55:55.503Z,85.00
2022-10-01T22:58:49.210Z,85.14
2022-10-01T23:02:18.239Z,85.22
2022-10-01T23:05:34.052Z,85.48
2022-10-01T23:08:39.720Z,85.77
2022-10-01T23:11:24.100Z,85.88
2022-10-01T23:14:13.519Z,86.05
2022-10-01T23:17:01.348Z,86.19
2022-10-01T23:19:51.077Z,86.22
2022-10-01T23:23:03.083Z,86.32
2022-10-01T23:25:46.507Z,86.44
2022-10-01T23:28:36.886Z,86.50
2022-10-01T23:31:10.832Z,86.62
2022-10-01T23:33:55.830Z,86.74
2022-10-01T23:36:45.414Z,86.87
2022-10-01T23:39:32.387Z,86.96
2022-10-01T23:42:58.308Z,87.00
2022-10-01T23:45:53.796Z,87.02
2022-10-01T23:48:50.947Z,87.19
2022-10-01T23:51:23.524Z,87.25
2022-10-01T23:54:05.069Z,87.35
2022-10-01T23:56:51.489Z,87.40
2022-10-01T23:59:39.217Z,87.52
